Time;durP1;ratioP1;P1;durP2;ratioP2;P2;SDS_P1;SDS_P2;PMS_P1;PMS_P2;Temp;Humidity;BMP_temperature;BMP_pressure;BME280_temperature;BME280_humidity;BME280_pressure;Samples;Min_cycle;Max_cycle;Signal;HPM_P1;HPM_P2
2021/10/23 00:01:32;;;;;;;6.43;1.97;;;;;;;9.61;55.87;99286.84;1695977;83;21343;-58
2021/10/23 00:03:58;;;;;;;7.60;2.70;;;;;;;9.61;55.84;99285.50;1697682;83;22404;-58
2021/10/23 00:06:25;;;;;;;6.47;2.33;;;;;;;9.62;55.78;99276.50;1699342;83;21086;-58
2021/10/23 00:08:53;;;;;;;6.43;2.30;;;;;;;9.63;55.68;99271.99;1696613;83;21717;-57
2021/10/23 00:11:20;;;;;;;10.40;3.07;;;;;;;9.65;55.53;99273.66;1693854;83;22562;-58
2021/10/23 00:13:46;;;;;;;8.70;2.10;;;;;;;9.66;55.50;99268.69;1681233;83;20904;-57
2021/10/23 00:16:13;;;;;;;13.43;2.83;;;;;;;9.69;55.35;99267.19;1699710;83;21050;-58
2021/10/23 00:18:39;;;;;;;8.13;2.90;;;;;;;9.70;55.32;99265.34;1695755;83;21132;-58
2021/10/23 00:21:05;;;;;;;9.43;3.87;;;;;;;9.69;55.15;99259.13;1663140;85;21113;-58
2021/10/23 00:23:33;;;;;;;5.80;2.27;;;;;;;9.70;55.05;99259.49;1663726;85;21437;-58
2021/10/23 00:26:00;;;;;;;4.87;2.23;;;;;;;9.70;55.10;99260.84;1663790;85;21138;-58
2021/10/23 00:28:26;;;;;;;5.87;2.33;;;;;;;9.71;55.16;99252.30;1663862;85;21097;-58
2021/10/23 00:30:53;;;;;;;9.53;2.73;;;;;;;9.71;55.11;99254.52;1672381;84;21141;-56
2021/10/23 00:33:19;;;;;;;5.80;2.13;;;;;;;9.71;55.03;99257.20;1675037;84;21109;-57
2021/10/23 00:35:47;;;;;;;5.27;2.13;;;;;;;9.70;55.01;99251.43;1675711;84;21102;-57
2021/10/23 00:38:14;;;;;;;11.73;2.37;;;;;;;9.68;54.98;99252.02;1675296;84;21137;-58
2021/10/23 00:40:42;;;;;;;6.93;2.57;;;;;;;9.68;54.86;99260.55;1675929;84;21086;-57
2021/10/23 00:43:09;;;;;;;8.73;2.13;;;;;;;9.65;54.77;99261.56;1672583;84;21396;-57
2021/10/23 00:45:35;;;;;;;4.93;2.37;;;;;;;9.63;54.70;99267.48;1679149;83;21615;-56
2021/10/23 00:48:03;;;;;;;6.87;2.63;;;;;;;9.58;54.67;99267.34;1646909;83;22742;-58
2021/10/23 00:50:30;;;;;;;5.00;1.80;;;;;;;9.54;54.56;99261.72;1705095;82;21010;-58
2021/10/23 00:52:56;;;;;;;8.47;2.00;;;;;;;9.50;54.48;99257.00;1707800;82;20947;-57
2021/10/23 00:55:22;;;;;;;5.27;2.63;;;;;;;9.46;54.23;99267.02;1706538;82;21058;-58
2021/10/23 00:57:49;;;;;;;5.23;1.80;;;;;;;9.42;54.04;99269.95;1708522;82;21003;-57
2021/10/23 01:00:17;;;;;;;9.07;1.60;;;;;;;9.38;53.95;99275.94;1708337;82;20871;-58
2021/10/23 01:02:45;;;;;;;5.00;1.73;;;;;;;9.34;53.93;99281.56;1706772;82;21422;-58
2021/10/23 01:05:11;;;;;;;3.73;1.20;;;;;;;9.30;53.92;99281.31;1707971;82;20923;-58
2021/10/23 01:07:38;;;;;;;9.20;1.70;;;;;;;9.24;53.83;99281.16;1707798;82;21299;-58
2021/10/23 01:10:06;;;;;;;4.43;1.90;;;;;;;9.20;53.86;99279.55;1705060;82;20927;-58
2021/10/23 01:12:35;;;;;;;4.47;1.50;;;;;;;9.17;53.87;99281.55;1707762;82;20927;-58
2021/10/23 01:15:21;;;;;;;3.20;1.30;;;;;;;9.13;53.88;99283.97;1704966;82;20907;-58
2021/10/23 01:17:47;;;;;;;7.42;1.62;;;;;;;9.09;53.88;99286.83;1703434;82;21698;-58
2021/10/23 01:20:14;;;;;;;5.73;1.50;;;;;;;9.04;53.96;99285.30;1706352;82;22072;-57
2021/10/23 01:22:41;;;;;;;2.63;1.80;;;;;;;9.01;54.00;99293.05;1707304;82;21046;-58
2021/10/23 01:25:09;;;;;;;7.07;2.17;;;;;;;8.99;54.09;99290.03;1707895;82;21152;-58
2021/10/23 01:27:37;;;;;;;4.67;1.60;;;;;;;8.94;54.14;99286.69;1706162;82;21012;-57
2021/10/23 01:30:09;;;;;;;7.33;2.60;;;;;;;8.91;54.26;99279.67;1706586;82;21030;-57
2021/10/23 01:32:35;;;;;;;6.83;2.03;;;;;;;8.88;54.47;99281.62;1707439;82;21755;-58
2021/10/23 01:35:04;;;;;;;9.63;2.90;;;;;;;8.83;54.61;99275.63;1704399;82;20978;-58
2021/10/23 01:37:39;;;;;;;10.37;2.87;;;;;;;8.78;54.80;99278.52;1702690;82;21069;-58
2021/10/23 01:40:06;;;;;;;;;;;;;;;8.75;54.93;99281.36;1708719;82;20872;-59
2021/10/23 01:42:35;;;;;;;6.37;2.13;;;;;;;8.70;55.09;99275.33;1701514;82;20354;-59
2021/10/23 01:45:01;;;;;;;7.87;2.63;;;;;;;8.64;55.28;99272.48;1704786;82;21082;-59
2021/10/23 01:47:28;;;;;;;9.67;2.80;;;;;;;8.60;55.45;99273.55;1709683;82;21038;-59
2021/10/23 01:49:54;;;;;;;6.60;2.40;;;;;;;8.56;55.69;99266.61;1718338;82;21078;-60
2021/10/23 01:52:21;;;;;;;10.53;2.33;;;;;;;8.53;55.94;99265.88;1721443;82;21106;-61
2021/10/23 01:54:47;;;;;;;9.77;2.83;;;;;;;8.51;56.13;99268.63;1663470;83;21530;-58
2021/10/23 01:57:15;;;;;;;7.93;2.80;;;;;;;8.48;56.28;99264.77;1720519;82;21571;-60
2021/10/23 01:59:41;;;;;;;6.77;2.47;;;;;;;8.46;56.42;99272.01;1721802;82;21047;-59
2021/10/23 02:02:07;;;;;;;10.53;2.60;;;;;;;8.44;56.53;99267.65;1717959;82;21115;-59
2021/10/23 02:04:34;;;;;;;11.73;2.37;;;;;;;8.41;56.64;99274.05;1720198;82;21054;-59
2021/10/23 02:07:00;;;;;;;6.80;2.03;;;;;;;8.38;56.75;99272.84;1718790;81;21069;-59
2021/10/23 02:09:26;;;;;;;7.87;2.63;;;;;;;8.34;56.85;99272.10;1719624;82;21287;-58
2021/10/23 02:11:53;;;;;;;9.60;2.53;;;;;;;8.31;56.99;99274.95;1719282;82;21100;-59
2021/10/23 02:14:19;;;;;;;6.63;2.30;;;;;;;8.27;57.09;99277.32;1720327;82;21528;-59
2021/10/23 02:16:46;;;;;;;16.83;2.73;;;;;;;8.23;57.19;99272.19;1718496;82;21442;-59
2021/10/23 02:19:12;;;;;;;5.07;2.37;;;;;;;8.17;57.33;99277.34;1716539;82;21045;-58
2021/10/23 02:21:38;;;;;;;9.23;2.40;;;;;;;8.14;57.45;99280.19;1719390;82;22201;-59
2021/10/23 02:24:05;;;;;;;4.30;1.70;;;;;;;8.13;57.55;99286.95;1662159;83;22197;-58
2021/10/23 02:26:31;;;;;;;5.70;2.00;;;;;;;8.11;57.54;99288.83;1719795;82;21121;-59
2021/10/23 02:28:58;;;;;;;8.40;2.10;;;;;;;8.08;57.52;99284.46;1722026;81;21069;-60
2021/10/23 02:31:25;;;;;;;6.30;1.93;;;;;;;8.05;57.54;99288.64;1719187;82;21213;-60
2021/10/23 02:33:52;;;;;;;11.03;2.40;;;;;;;8.03;57.59;99288.30;1722863;82;21041;-58
2021/10/23 02:36:19;;;;;;;7.90;3.80;;;;;;;8.01;57.59;99285.69;1663097;83;21408;-59
2021/10/23 02:38:46;;;;;;;7.80;2.87;;;;;;;8.01;57.61;99296.88;1659868;85;21444;-59
2021/10/23 02:41:12;;;;;;;5.07;2.97;;;;;;;8.00;57.67;99294.66;1720880;82;21843;-60
2021/10/23 02:43:38;;;;;;;9.27;3.47;;;;;;;7.99;57.69;99298.31;1719768;81;21065;-57
2021/10/23 02:46:05;;;;;;;9.77;4.50;;;;;;;7.96;57.69;99295.28;1682873;83;21086;-58
2021/10/23 02:48:31;;;;;;;10.60;5.37;;;;;;;7.94;57.74;99305.20;1717520;81;21078;-57
2021/10/23 02:50:58;;;;;;;10.53;4.60;;;;;;;7.92;57.80;99308.88;1717947;81;21109;-60
2021/10/23 02:53:24;;;;;;;8.93;5.20;;;;;;;7.90;57.89;99297.38;1713537;81;21073;-59
2021/10/23 02:55:50;;;;;;;9.03;3.97;;;;;;;7.87;58.00;99293.48;1719172;81;21069;-61
2021/10/23 02:58:19;;;;;;;8.00;4.40;;;;;;;7.85;58.07;99294.02;1717823;81;22212;-60
2021/10/23 03:00:45;;;;;;;7.20;3.10;;;;;;;7.82;58.14;99295.52;1716435;81;22407;-59
2021/10/23 03:03:12;;;;;;;15.77;4.17;;;;;;;7.80;58.17;99296.04;1716215;81;22700;-59
2021/10/23 03:05:39;;;;;;;10.23;3.90;;;;;;;7.79;58.20;99294.30;1716341;81;21809;-60
2021/10/23 03:08:05;;;;;;;7.17;2.93;;;;;;;7.77;58.21;99292.14;1715878;81;21057;-59
2021/10/23 03:10:33;;;;;;;8.77;4.03;;;;;;;7.75;58.21;99292.20;1644528;85;21050;-60
2021/10/23 03:12:59;;;;;;;11.33;4.90;;;;;;;7.73;58.19;99289.22;1662899;84;21128;-59
2021/10/23 03:15:26;;;;;;;10.63;4.30;;;;;;;7.69;58.22;99291.14;1664198;84;22348;-58
2021/10/23 03:17:53;;;;;;;7.53;4.10;;;;;;;7.66;58.25;99287.72;1642346;85;21068;-58
2021/10/23 03:20:20;;;;;;;6.17;3.07;;;;;;;7.62;58.23;99285.66;1718498;81;21392;-60
2021/10/23 03:22:48;;;;;;;7.03;3.23;;;;;;;7.58;58.20;99285.37;1714460;82;21310;-59
2021/10/23 03:25:14;;;;;;;8.30;2.60;;;;;;;7.54;58.21;99283.31;1716241;81;21438;-61
2021/10/23 03:27:40;;;;;;;6.90;2.60;;;;;;;7.51;58.23;99279.89;1720340;81;21098;-60
2021/10/23 03:30:08;;;;;;;5.70;2.87;;;;;;;7.49;58.21;99286.64;1715537;81;21290;-59
2021/10/23 03:32:36;;;;;;;11.73;2.73;;;;;;;7.48;58.15;99287.61;1714447;81;21144;-59
2021/10/23 03:35:04;;;;;;;6.63;3.03;;;;;;;7.48;58.08;99292.09;1715890;81;21036;-59
2021/10/23 03:37:31;;;;;;;7.03;1.90;;;;;;;7.47;58.04;99291.69;1715578;81;21189;-59
2021/10/23 03:39:58;;;;;;;6.47;2.20;;;;;;;7.45;57.96;99301.58;1718614;81;21149;-60
2021/10/23 03:42:26;;;;;;;7.73;2.30;;;;;;;7.42;57.90;99301.23;1646732;84;21482;-59
2021/10/23 03:44:53;;;;;;;5.77;2.40;;;;;;;7.38;57.83;99292.95;1718115;81;21539;-59
2021/10/23 03:47:20;;;;;;;4.37;2.07;;;;;;;7.35;57.82;99293.53;1648496;84;20983;-58
2021/10/23 03:49:47;;;;;;;9.90;2.07;;;;;;;7.34;57.81;99298.02;1658855;84;21348;-59
2021/10/23 03:52:13;;;;;;;5.93;2.00;;;;;;;7.32;57.83;99298.54;1644890;85;22026;-58
2021/10/23 03:54:40;;;;;;;4.33;1.80;;;;;;;7.31;57.73;99310.22;1717883;81;21050;-59
2021/10/23 03:57:07;;;;;;;5.73;1.70;;;;;;;7.29;57.70;99303.17;1719113;81;21033;-58
2021/10/23 03:59:33;;;;;;;2.77;1.30;;;;;;;7.28;57.64;99308.98;1717337;81;21062;-58
2021/10/23 04:02:00;;;;;;;3.27;1.30;;;;;;;7.28;57.60;99300.09;1712766;81;21109;-58
2021/10/23 04:04:27;;;;;;;5.13;1.70;;;;;;;7.28;57.46;99294.27;1713545;81;21044;-60
2021/10/23 04:06:54;;;;;;;4.60;1.40;;;;;;;7.27;57.44;99292.98;1717032;81;21137;-57
2021/10/23 04:09:20;;;;;;;3.30;1.23;;;;;;;7.25;57.38;99286.35;1670172;83;21173;-57
2021/10/23 04:11:46;;;;;;;6.27;1.60;;;;;;;7.26;57.21;99292.58;1715373;81;21048;-59
2021/10/23 04:14:13;;;;;;;7.03;2.17;;;;;;;7.27;57.11;99287.63;1716913;81;21116;-58
2021/10/23 04:16:41;;;;;;;3.93;1.47;;;;;;;7.28;56.92;99286.23;1643949;85;21065;-57
2021/10/23 04:19:09;;;;;;;2.87;1.30;;;;;;;7.28;56.84;99296.94;1716758;81;21387;-58
2021/10/23 04:21:35;;;;;;;4.80;1.20;;;;;;;7.28;56.72;99294.27;1643475;85;21126;-58
2021/10/23 04:24:04;;;;;;;7.33;1.47;;;;;;;7.30;56.60;99298.23;1716233;81;21435;-59
2021/10/23 04:26:30;;;;;;;4.17;1.10;;;;;;;7.30;56.44;99300.44;1716078;81;21157;-59
2021/10/23 04:28:57;;;;;;;5.50;1.20;;;;;;;7.32;56.34;99302.55;1713602;82;21133;-58
2021/10/23 04:31:23;;;;;;;4.87;1.10;;;;;;;7.33;56.20;99305.64;1714362;81;21213;-59
2021/10/23 04:33:50;;;;;;;5.83;1.10;;;;;;;7.34;56.08;99311.40;1641674;85;21126;-58
2021/10/23 04:36:16;;;;;;;4.73;1.20;;;;;;;7.37;55.98;99318.44;1715581;81;21102;-60
2021/10/23 04:38:43;;;;;;;3.87;1.07;;;;;;;7.39;55.95;99317.92;1692365;82;21063;-58
2021/10/23 04:41:10;;;;;;;4.87;1.10;;;;;;;7.39;55.73;99324.15;1717026;81;21192;-59
2021/10/23 04:43:36;;;;;;;3.07;1.03;;;;;;;7.41;55.69;99328.95;1714746;81;21117;-59
2021/10/23 04:46:04;;;;;;;4.10;1.07;;;;;;;7.42;55.66;99327.14;1712544;81;21124;-60
2021/10/23 04:48:32;;;;;;;3.57;1.07;;;;;;;7.41;55.67;99324.93;1713792;81;21051;-59
2021/10/23 04:51:00;;;;;;;3.33;1.00;;;;;;;7.43;55.63;99321.73;1718948;81;21001;-60
2021/10/23 04:53:27;;;;;;;3.43;0.90;;;;;;;7.44;55.59;99323.94;1720146;81;21058;-58
2021/10/23 04:55:53;;;;;;;3.13;1.20;;;;;;;7.44;55.55;99328.83;1721429;80;21062;-58
2021/10/23 04:58:19;;;;;;;3.27;0.93;;;;;;;7.44;55.56;99329.30;1717391;81;21080;-58
2021/10/23 05:00:46;;;;;;;9.53;1.93;;;;;;;7.45;55.53;99327.02;1716826;81;21085;-58
2021/10/23 05:03:12;;;;;;;4.07;1.30;;;;;;;7.44;55.53;99326.16;1722923;81;21266;-58
2021/10/23 05:05:38;;;;;;;3.37;1.00;;;;;;;7.45;55.46;99331.04;1718645;81;22081;-58
2021/10/23 05:08:05;;;;;;;6.03;1.00;;;;;;;7.46;55.46;99345.70;1716756;81;21069;-58
2021/10/23 05:10:33;;;;;;;5.07;1.20;;;;;;;7.48;55.51;99345.66;1717129;82;20970;-59
2021/10/23 05:12:59;;;;;;;4.63;1.10;;;;;;;7.48;55.44;99344.31;1716515;82;21041;-58
2021/10/23 05:15:27;;;;;;;6.87;0.97;;;;;;;7.47;55.45;99346.58;1720458;82;21015;-58
2021/10/23 05:17:53;;;;;;;5.50;1.20;;;;;;;7.47;55.41;99347.92;1719850;82;21206;-59
2021/10/23 05:20:21;;;;;;;3.73;1.00;;;;;;;7.48;55.42;99347.86;1719038;81;21428;-59
2021/10/23 05:22:48;;;;;;;3.43;0.90;;;;;;;7.49;55.44;99356.27;1715052;82;21499;-58
2021/10/23 05:25:15;;;;;;;5.83;1.00;;;;;;;7.51;55.34;99362.45;1718111;82;21089;-58
2021/10/23 05:27:42;;;;;;;2.70;1.10;;;;;;;7.51;55.21;99369.14;1715658;81;21089;-59
2021/10/23 05:30:09;;;;;;;8.70;1.20;;;;;;;7.51;55.21;99382.53;1719849;81;21090;-58
2021/10/23 05:32:35;;;;;;;4.53;1.33;;;;;;;7.52;55.21;99378.05;1720319;82;21073;-58
2021/10/23 05:35:02;;;;;;;6.27;1.37;;;;;;;7.51;55.25;99383.87;1718871;82;21104;-58
2021/10/23 05:37:30;;;;;;;7.97;1.20;;;;;;;7.51;55.29;99385.67;1717990;82;21050;-58
2021/10/23 05:39:56;;;;;;;3.80;1.10;;;;;;;7.51;55.31;99385.67;1723523;82;21176;-58
2021/10/23 05:42:22;;;;;;;5.43;1.60;;;;;;;7.52;55.29;99394.98;1718467;81;23355;-58
2021/10/23 05:44:49;;;;;;;4.63;1.10;;;;;;;7.55;55.29;99389.98;1715567;81;21684;-58
2021/10/23 05:47:16;;;;;;;4.23;1.43;;;;;;;7.55;55.28;99392.20;1719027;81;20967;-58
2021/10/23 05:49:42;;;;;;;5.67;1.23;;;;;;;7.57;55.25;99397.50;1713453;80;21202;-57
2021/10/23 05:52:08;;;;;;;5.93;1.10;;;;;;;7.58;55.30;99389.37;1643361;85;21522;-60
2021/10/23 05:54:37;;;;;;;5.63;1.37;;;;;;;7.60;55.29;99385.29;1705356;82;21172;-59
2021/10/23 05:57:08;;;;;;;4.90;1.20;;;;;;;7.63;55.26;99393.20;1703924;82;21691;-61
2021/10/23 05:59:37;;;;;;;3.93;1.60;;;;;;;7.67;55.29;99396.61;1703560;82;21424;-60
2021/10/23 06:04:50;;;;;;;4.35;1.52;;;;;;;7.77;55.22;99385.91;1711443;82;21540;-60
2021/10/23 06:07:17;;;;;;;3.00;1.10;;;;;;;7.85;55.23;99383.31;1683545;82;21176;-60
2021/10/23 06:09:45;;;;;;;7.80;1.50;;;;;;;7.92;55.14;99384.78;1703557;82;21036;-59
2021/10/23 06:12:12;;;;;;;6.67;1.60;;;;;;;8.00;54.95;99383.11;1706196;82;21026;-59
2021/10/23 06:14:40;;;;;;;2.93;1.00;;;;;;;8.08;54.88;99394.37;1707532;82;21152;-60
2021/10/23 06:17:07;;;;;;;4.73;1.00;;;;;;;8.15;54.69;99391.84;1710356;82;20927;-59
2021/10/23 06:19:35;;;;;;;3.30;1.10;;;;;;;8.24;54.45;99399.48;1710822;82;21151;-59
2021/10/23 06:22:01;;;;;;;4.60;1.10;;;;;;;8.31;54.23;99406.34;1706768;82;21077;-58
2021/10/23 06:24:27;;;;;;;5.47;1.20;;;;;;;8.39;54.01;99410.49;1710457;82;20911;-60
2021/10/23 06:26:54;;;;;;;4.80;1.40;;;;;;;8.47;53.99;99421.28;1706673;82;21549;-59
2021/10/23 06:29:20;;;;;;;5.50;1.20;;;;;;;8.57;53.75;99427.98;1707270;82;22203;-60
2021/10/23 06:31:47;;;;;;;4.67;1.00;;;;;;;8.67;53.61;99423.06;1702461;82;21492;-59
2021/10/23 06:34:13;;;;;;;5.37;1.43;;;;;;;8.76;53.46;99422.65;1708270;82;21543;-59
2021/10/23 06:36:39;;;;;;;4.23;0.90;;;;;;;8.83;53.20;99416.05;1704579;82;21432;-60
2021/10/23 06:39:07;;;;;;;5.73;1.30;;;;;;;8.94;52.94;99423.11;1703373;82;21582;-60
2021/10/23 06:41:35;;;;;;;7.40;1.00;;;;;;;9.03;52.62;99422.68;1703547;82;21506;-60
2021/10/23 06:44:06;;;;;;;3.40;1.00;;;;;;;9.11;52.20;99412.91;1703785;82;21124;-59
2021/10/23 06:46:34;;;;;;;6.13;0.80;;;;;;;9.18;52.16;99418.89;1707263;82;21567;-60
2021/10/23 06:49:00;;;;;;;4.20;0.90;;;;;;;9.27;51.84;99419.29;1702103;82;21392;-60
2021/10/23 06:51:27;;;;;;;4.93;1.20;;;;;;;9.35;51.61;99415.80;1695886;82;21070;-59
2021/10/23 06:53:56;;;;;;;1.77;0.77;;;;;;;9.43;51.36;99416.77;1623636;86;21063;-60
2021/10/23 06:56:23;;;;;;;3.53;0.80;;;;;;;9.48;51.09;99420.08;1696986;83;21118;-60
2021/10/23 06:58:51;;;;;;;1.83;0.80;;;;;;;9.55;51.16;99428.23;1698315;83;21482;-61
2021/10/23 07:03:06;;;;;;;2.37;0.90;;;;;;;9.68;50.45;99434.76;1869820;75;22498;-59
2021/10/23 07:05:32;;;;;;;6.60;1.00;;;;;;;9.66;50.32;99440.67;1771401;79;21546;-60
2021/10/23 07:08:00;;;;;;;3.37;1.07;;;;;;;9.70;50.34;99442.25;1768187;78;22589;-60
2021/10/23 07:10:27;;;;;;;3.30;1.17;;;;;;;9.75;50.13;99433.50;1798219;78;21168;-59
2021/10/23 07:12:55;;;;;;;3.23;1.10;;;;;;;9.83;49.96;99430.43;1804409;77;20945;-59
2021/10/23 07:15:21;;;;;;;1.93;0.80;;;;;;;9.87;49.51;99436.90;1768613;78;21064;-59
2021/10/23 07:17:48;;;;;;;3.73;0.90;;;;;;;9.92;49.51;99439.84;1799424;78;21123;-59
2021/10/23 07:20:14;;;;;;;3.23;0.80;;;;;;;9.97;49.21;99434.63;1767376;78;21121;-59
2021/10/23 07:22:41;;;;;;;2.63;0.73;;;;;;;10.03;48.77;99438.37;1800232;78;21028;-59
2021/10/23 07:25:08;;;;;;;6.37;0.90;;;;;;;10.06;48.82;99441.35;1771685;78;21040;-59
2021/10/23 07:27:35;;;;;;;6.63;1.00;;;;;;;10.09;48.82;99444.77;1795439;78;21037;-61
2021/10/23 07:30:06;;;;;;;2.27;0.60;;;;;;;10.19;48.78;99447.89;1803769;78;20961;-58
2021/10/23 07:32:31;;;;;;;1.80;0.60;;;;;;;10.26;48.54;99451.13;1776916;79;21067;-61
2021/10/23 07:34:58;;;;;;;3.63;0.80;;;;;;;10.34;48.30;99451.13;1780053;79;20949;-60
2021/10/23 07:37:24;;;;;;;8.90;0.90;;;;;;;10.40;48.10;99450.80;1781463;78;20906;-59
2021/10/23 07:39:52;;;;;;;2.60;0.80;;;;;;;10.45;47.82;99462.22;1749429;80;20965;-60
2021/10/23 07:42:18;;;;;;;3.40;0.90;;;;;;;10.46;47.54;99442.91;1754365;80;20910;-58
2021/10/23 07:44:45;;;;;;;1.90;1.00;;;;;;;10.47;47.67;99458.94;1750010;80;21055;-60
2021/10/23 07:47:11;;;;;;;6.08;0.78;;;;;;;10.49;47.34;99446.76;1781235;78;20945;-58
2021/10/23 07:49:40;;;;;;;4.33;0.80;;;;;;;10.52;47.43;99453.34;1742690;80;20981;-59
2021/10/23 07:52:06;;;;;;;1.35;0.80;;;;;;;10.55;47.70;99451.33;1760614;79;21438;-61
2021/10/23 07:54:34;;;;;;;3.55;0.80;;;;;;;10.64;47.64;99467.47;1765809;80;21105;-60
2021/10/23 07:57:01;;;;;;;2.17;0.78;;;;;;;10.73;47.70;99463.42;1758085;79;21134;-59
2021/10/23 07:59:27;;;;;;;3.27;0.80;;;;;;;10.83;47.26;99461.98;1759912;79;21071;-60
2021/10/23 08:01:59;;;;;;;2.90;0.80;;;;;;;10.89;47.20;99469.25;1758883;79;21597;-61
2021/10/23 08:04:27;;;;;;;4.47;0.90;;;;;;;10.93;46.93;99473.53;1758426;79;21108;-59
2021/10/23 08:06:56;;;;;;;6.50;0.90;;;;;;;10.97;46.86;99472.39;1757134;79;21582;-58
2021/10/23 08:09:23;;;;;;;2.43;0.80;;;;;;;11.02;46.83;99465.42;1763831;79;21472;-59
2021/10/23 08:11:51;;;;;;;1.57;0.70;;;;;;;11.08;46.74;99469.59;1760536;79;21547;-58
2021/10/23 08:14:17;;;;;;;2.37;0.68;;;;;;;11.16;46.75;99479.48;1759608;79;21598;-60
2021/10/23 08:16:45;;;;;;;4.45;0.80;;;;;;;11.27;46.68;99476.59;1760915;79;20988;-62
2021/10/23 08:19:11;;;;;;;4.17;0.70;;;;;;;11.38;46.60;99471.48;1757768;79;22538;-61
2021/10/23 08:21:38;;;;;;;5.60;0.60;;;;;;;11.50;46.00;99459.61;1760108;79;22102;-60
2021/10/23 08:24:07;;;;;;;1.55;0.60;;;;;;;11.60;46.01;99467.56;1757002;79;21225;-61
2021/10/23 08:29:15;;;;;;;5.03;0.50;;;;;;;11.81;44.78;99485.27;1853511;75;22623;-58
2021/10/23 08:31:45;;;;;;;5.25;0.45;;;;;;;11.78;44.93;99482.73;1809424;77;21436;-58
2021/10/23 08:34:13;;;;;;;6.78;0.80;;;;;;;11.83;44.79;99482.45;1787373;78;20969;-59
2021/10/23 08:36:39;;;;;;;2.67;0.40;;;;;;;11.88;44.85;99490.69;1784551;78;21310;-59
2021/10/23 08:39:07;;;;;;;4.28;0.93;;;;;;;11.97;44.76;99506.34;1786531;78;21423;-59
2021/10/23 08:41:33;;;;;;;2.70;0.40;;;;;;;12.03;44.38;99510.50;1786383;78;21411;-60
2021/10/23 08:44:05;;;;;;;3.17;0.40;;;;;;;12.07;44.41;99512.08;1786309;78;20949;-59
2021/10/23 08:46:36;;;;;;;2.27;0.45;;;;;;;12.10;44.00;99509.19;1789798;77;21426;-62
2021/10/23 08:49:03;;;;;;;2.83;0.42;;;;;;;12.08;44.08;99509.27;1790792;78;20992;-59
2021/10/23 08:51:32;;;;;;;2.22;0.50;;;;;;;12.09;44.12;99512.36;1791567;78;21509;-59
2021/10/23 08:53:58;;;;;;;3.98;0.50;;;;;;;12.11;44.16;99507.75;1789691;78;20898;-60
2021/10/23 08:56:26;;;;;;;1.60;0.50;;;;;;;12.06;43.86;99519.78;1788552;78;20897;-59
2021/10/23 08:58:52;;;;;;;1.60;0.42;;;;;;;12.00;43.84;99515.59;1787267;78;21106;-60
2021/10/23 09:01:20;;;;;;;0.88;0.40;;;;;;;11.93;43.92;99525.47;1787019;78;21025;-59
2021/10/23 09:03:47;;;;;;;2.10;0.70;;;;;;;11.88;43.95;99531.62;1786784;78;20961;-60
2021/10/23 09:06:15;;;;;;;2.47;0.40;;;;;;;11.78;44.10;99525.88;1789901;78;20909;-60
2021/10/23 09:09:08;;;;;;;1.90;0.60;;;;;;;11.73;44.35;99527.95;1751037;80;21533;-59
2021/10/23 09:11:38;;;;;;;6.50;0.40;;;;;;;11.67;44.23;99532.31;1713042;81;20996;-60
2021/10/23 09:14:39;;;;;;;2.65;0.45;;;;;;;11.65;44.06;99547.22;1734652;80;20978;-60
2021/10/23 09:17:14;;;;;;;2.17;0.40;;;;;;;11.61;44.15;99530.84;1733690;80;20952;-58
2021/10/23 09:19:45;;;;;;;5.47;0.45;;;;;;;11.62;44.13;99531.23;1740306;80;21070;-59
2021/10/23 09:22:34;;;;;;;1.62;0.40;;;;;;;11.63;44.19;99532.98;1736241;80;21832;-61
2021/10/23 09:25:26;;;;;;;1.47;0.50;;;;;;;11.66;44.28;99522.00;1738640;80;22581;-61
2021/10/23 09:28:05;;;;;;;1.85;0.40;;;;;;;11.71;44.20;99525.80;1736905;80;21095;-61
2021/10/23 09:30:34;;;;;;;2.40;0.40;;;;;;;11.80;43.99;99535.23;1742951;80;21014;-62
2021/10/23 09:33:08;;;;;;;1.70;0.40;;;;;;;11.88;43.74;99532.97;1742324;80;21093;-61
2021/10/23 09:35:38;;;;;;;1.70;0.40;;;;;;;11.86;43.33;99539.80;1732672;80;21068;-61
2021/10/23 09:38:05;;;;;;;1.00;0.40;;;;;;;11.81;43.31;99543.24;1741569;80;21685;-59
2021/10/23 09:40:32;;;;;;;0.72;0.30;;;;;;;11.74;43.21;99549.88;1738766;80;21594;-64
2021/10/23 09:43:16;;;;;;;3.45;0.40;;;;;;;11.62;43.46;99547.88;1743670;80;21456;-60
2021/10/23 09:46:00;;;;;;;5.58;0.40;;;;;;;11.51;43.66;99565.12;1741019;80;20981;-60
2021/10/23 09:48:51;;;;;;;1.15;0.30;;;;;;;11.40;43.83;99548.69;1703451;80;21123;-62
2021/10/23 09:51:28;;;;;;;4.40;0.30;;;;;;;11.29;44.00;99549.27;1740046;80;22117;-60
2021/10/23 09:53:58;;;;;;;2.35;0.62;;;;;;;11.22;44.25;99546.52;1744017;80;21341;-60
2021/10/23 09:56:38;;;;;;;9.15;0.72;;;;;;;11.21;44.38;99538.03;1744222;80;20922;-59
2021/10/23 09:59:08;;;;;;;0.88;0.30;;;;;;;11.22;44.49;99549.21;1748649;80;20911;-62
2021/10/23 10:01:42;;;;;;;1.32;0.37;;;;;;;11.26;44.28;99548.08;1744761;80;20978;-65
2021/10/23 10:04:13;;;;;;;4.95;0.40;;;;;;;11.30;44.10;99545.14;1742696;80;21103;-60
2021/10/23 10:06:45;;;;;;;4.00;0.30;;;;;;;11.30;43.74;99547.84;1743399;80;20982;-60
2021/10/23 10:09:15;;;;;;;3.52;0.42;;;;;;;11.28;43.68;99561.87;1741918;80;20971;-60
2021/10/23 10:11:43;;;;;;;1.80;0.50;;;;;;;11.22;43.46;99558.16;1741598;80;20988;-61
2021/10/23 10:14:11;;;;;;;1.92;0.45;;;;;;;11.18;43.71;99557.92;1743758;80;20942;-62
2021/10/23 10:16:47;;;;;;;1.57;0.40;;;;;;;11.18;43.77;99569.17;1748357;80;21034;-60
2021/10/23 10:19:17;;;;;;;4.70;0.40;;;;;;;11.14;43.79;99560.88;1749981;80;20954;-59
2021/10/23 10:21:43;;;;;;;1.82;0.30;;;;;;;11.11;43.87;99562.38;1748622;80;20909;-59
2021/10/23 10:24:23;;;;;;;0.62;0.30;;;;;;;11.10;44.31;99550.73;1749273;80;21507;-60
2021/10/23 10:27:09;;;;;;;5.65;0.35;;;;;;;11.18;43.85;99551.66;1746503;80;20977;-60
2021/10/23 10:32:35;;;;;;;1.82;0.20;;;;;;;11.33;42.95;99569.21;1755066;80;20898;-61
2021/10/23 10:35:14;;;;;;;0.85;0.30;;;;;;;11.42;42.81;99577.75;1754207;80;20887;-60
2021/10/23 10:40:31;;;;;;;0.82;0.40;;;;;;;11.65;42.25;99569.30;1694118;80;21047;-60
2021/10/23 10:42:53;;;;;;;2.20;0.45;;;;;;;11.74;41.75;99564.27;1743614;80;22341;-60
2021/10/23 10:45:46;;;;;;;2.92;0.30;;;;;;;11.82;41.23;99561.17;1732714;80;21050;-60
2021/10/23 10:48:34;;;;;;;1.37;0.30;;;;;;;11.83;41.22;99557.48;1748587;80;21318;-60
2021/10/23 10:51:14;;;;;;;1.27;0.30;;;;;;;11.86;40.91;99565.89;1748377;80;21065;-58
2021/10/23 10:53:55;;;;;;;3.00;0.75;;;;;;;11.80;41.29;99578.38;1747900;80;21601;-60
2021/10/23 10:56:23;;;;;;;4.65;0.40;;;;;;;11.75;41.15;99571.88;1744728;80;21152;-63
2021/10/23 10:58:55;;;;;;;2.15;0.70;;;;;;;11.66;41.50;99578.62;1757888;79;21367;-61
2021/10/23 11:01:31;;;;;;;2.95;0.40;;;;;;;11.63;41.53;99580.63;1749382;80;21085;-59
2021/10/23 11:04:06;;;;;;;2.50;0.70;;;;;;;11.62;41.49;99589.20;1750793;80;21413;-60
2021/10/23 11:06:44;;;;;;;2.92;0.40;;;;;;;11.65;41.08;99580.92;1747520;80;21060;-60
2021/10/23 11:09:17;;;;;;;2.75;0.30;;;;;;;11.67;41.09;99576.80;1746092;80;21194;-58
2021/10/23 11:11:59;;;;;;;1.27;0.30;;;;;;;11.72;40.70;99576.95;1744731;80;20949;-60
2021/10/23 11:14:36;;;;;;;2.98;0.28;;;;;;;11.76;40.29;99572.27;1743925;80;21140;-59
2021/10/23 11:17:14;;;;;;;2.50;0.30;;;;;;;11.84;39.93;99562.41;1747721;80;21119;-60
2021/10/23 11:19:48;;;;;;;3.92;0.30;;;;;;;11.91;39.11;99561.97;1748220;80;20992;-61
2021/10/23 11:22:20;;;;;;;3.20;0.50;;;;;;;11.99;38.66;99565.09;1750540;80;21009;-61
2021/10/23 11:25:05;;;;;;;1.22;0.30;;;;;;;12.07;38.78;99572.30;1753317;80;20922;-60
2021/10/23 11:27:44;;;;;;;0.95;0.40;;;;;;;12.15;38.41;99583.13;1751324;80;20994;-62
2021/10/23 11:30:29;;;;;;;1.92;0.50;;;;;;;12.23;37.60;99586.27;1743415;80;21072;-61
2021/10/23 11:33:04;;;;;;;2.25;0.30;;;;;;;12.24;37.19;99582.61;1739377;80;21093;-60
2021/10/23 11:35:36;;;;;;;1.82;0.30;;;;;;;12.21;37.21;99589.52;1738574;80;21093;-59
2021/10/23 11:38:04;;;;;;;4.33;0.37;;;;;;;12.16;37.33;99582.18;1739125;80;21414;-60
2021/10/23 11:40:31;;;;;;;1.77;0.30;;;;;;;12.13;37.86;99581.87;1739598;80;20943;-59
2021/10/23 11:42:59;;;;;;;0.53;0.20;;;;;;;12.16;37.88;99590.27;1741382;80;21451;-60
2021/10/23 11:45:28;;;;;;;7.17;0.37;;;;;;;12.17;37.91;99591.50;1738442;80;21072;-60
2021/10/23 11:47:55;;;;;;;2.37;0.30;;;;;;;12.24;38.06;99591.58;1739074;80;22874;-60
2021/10/23 11:50:29;;;;;;;2.10;0.30;;;;;;;12.30;37.62;99599.30;1737624;80;21045;-60
2021/10/23 11:53:18;;;;;;;2.60;0.40;;;;;;;12.34;37.70;99597.28;1737737;80;21134;-60
2021/10/23 11:55:55;;;;;;;4.08;0.80;;;;;;;12.32;37.46;99607.32;1739287;80;21561;-62
2021/10/23 11:58:27;;;;;;;3.05;0.40;;;;;;;12.25;37.64;99615.38;1735876;80;21080;-61
2021/10/23 12:01:05;;;;;;;1.92;0.50;;;;;;;12.12;38.15;99618.77;1736806;80;21447;-60